Flight Track Log - Related Links

Times and Time Zones

All times are in EDT time to prevent confusion due to time zone crossing. See the SWA303 flight status page for this flight to view local times or setup timezone preferences in your user account.

Time Position Orientation Groundspeed Altitude Reporting Facility
EDT Latitude Longitude Course Direction KTS MPH feet Rate Location/Type
Tue 02:23:13 PM 39.8833 -104.6000 90° East 189 217 6,500  Level Denver TRACON
Tue 02:24:01 PM 39.8833 -104.5333 90° East 224 258 7,800 1,778 Climbing Denver TRACON
Tue 02:25:01 PM 39.8833 -104.4333 90° East 272 313 9,700 1,800 Climbing Denver TRACON
Tue 02:26:01 PM 39.8833 -104.3167 90° East 348 400 11,400 2,476 Climbing Denver TRACON
Tue 02:27:07 PM 39.8789 -104.1797 92° East 366 421 14,900 3,000 Climbing Denver Center
Tue 02:28:09 PM 39.8800 -104.0306 89° East 383 441 17,800 2,627 Climbing Denver Center
Tue 02:30:12 PM 39.9022 -103.7242 85° East 414 476 23,000 2,400 Climbing Denver Center
Tue 02:31:14 PM 39.9144 -103.5717 84° East 422 486 25,200 1,984 Climbing Denver Center
Tue 02:32:16 PM 39.9253 -103.4128 85° East 435 501 27,100 1,742 Climbing Denver Center
Tue 02:33:18 PM 39.9369 -103.2503 85° East 444 511 28,800 1,597 Climbing Denver Center
Tue 02:34:20 PM 39.9469 -103.0825 86° East 459 528 30,400 1,790 Climbing Denver Center
Tue 02:35:22 PM 39.9600 -102.9186 84° East 453 521 32,500 1,511 Climbing Denver Center
Tue 02:36:35 PM 39.9703 -102.7528 85° East 455 524 33,800 1,191 Climbing Denver Center
Tue 02:37:38 PM 39.9833 -102.5397 85° East 463 533 35,200 1,161 Climbing Denver Center
Tue 02:38:39 PM 39.9928 -102.3778 86° East 467 537 36,200 878 Climbing Denver Center
Tue 02:39:41 PM 40.0042 -102.1864 85° East 474 545 37,000 387 Climbing Denver Center
Tue 02:40:43 PM 40.0136 -102.0244 86° East 471 542 37,000  Level Denver Center
Tue 02:41:45 PM 40.0242 -101.8356 86° East 468 539 37,000  Level Denver Center
Tue 02:42:46 PM 40.0339 -101.6728 85° East 471 542 37,000  Level Denver Center
Tue 02:43:48 PM 40.0431 -101.4842 86° East 468 539 37,000  Level Denver Center
Tue 02:44:50 PM 40.0511 -101.3208 86° East 472 543 37,000  Level Denver Center
Tue 02:45:52 PM 40.0606 -101.1317 86° East 471 542 37,000  Level Denver Center
Tue 02:46:53 PM 40.0675 -100.9975 86° East 468 539 37,000  Level Denver Center
Tue 02:47:55 PM 40.0778 -100.7814 86° East 469 540 37,000  Level Denver Center
Tue 02:48:57 PM 40.0847 -100.6200 87° East 468 539 37,000  Level Denver Center
Tue 02:49:58 PM 40.0928 -100.4592 86° East 467 537 37,000  Level Denver Center
Tue 02:51:00 PM 40.1000 -100.2722 87° East 463 533 37,000  Level Denver Center
Tue 02:52:02 PM 40.1072 -100.1103 87° East 467 537 37,000  Level Denver Center
Tue 02:53:04 PM 40.1142 -99.9247 87° East 463 533 37,000  Level Denver Center
Tue 02:54:05 PM 40.1214 -99.7467 87° East 462 532 37,000  Level Denver Center
Tue 02:55:07 PM 40.1272 -99.5803 87° East 461 531 37,000  Level Denver Center
Tue 02:56:09 PM 40.1331 -99.4161 87° East 457 526 37,000  Level Denver Center
Tue 02:57:11 PM 40.1389 -99.2508 87° East 455 524 37,000  Level Denver Center
Tue 02:58:12 PM 40.1450 -99.0864 87° East 454 522 37,000  Level Denver Center
Tue 02:59:14 PM 40.1492 -98.9211 88° East 458 527 37,000  Level Denver Center
Tue 03:00:16 PM 40.1561 -98.7217 87° East 458 527 37,000  Level Denver Center
Tue 03:01:24 PM 40.1597 -98.5556 88° East 461 531 37,000  Level Minneapolis Center
Tue 03:02:26 PM 40.1642 -98.3883 88° East 462 532 37,000  Level Minneapolis Center
Tue 03:03:28 PM 40.1697 -98.1881 88° East 461 531 37,000  Level Minneapolis Center
Tue 03:04:30 PM 40.1725 -98.0211 89° East 461 531 37,000  Level Minneapolis Center
Tue 03:05:32 PM 40.1778 -97.8553 88° East 459 528 37,000  Level Minneapolis Center
Tue 03:06:33 PM 40.1803 -97.6894 89° East 459 528 37,000  Level Minneapolis Center
Tue 03:07:35 PM 40.1831 -97.5233 89° East 459 528 37,000  Level Minneapolis Center
Tue 03:08:37 PM 40.1856 -97.3564 89° East 459 528 37,000  Level Minneapolis Center
Tue 03:09:39 PM 40.1894 -97.1642 88° East 460 529 37,000  Level Minneapolis Center
Tue 03:10:41 PM 40.1919 -96.9964 89° East 462 532 37,000  Level Minneapolis Center
Tue 03:11:42 PM 40.1939 -96.8292 89° East 461 531 37,000  Level Minneapolis Center
Tue 03:12:44 PM 40.1950 -96.6625 89° East 460 529 37,000  Level Minneapolis Center
Tue 03:13:46 PM 40.1975 -96.4967 89° East 460 529 37,000  Level Minneapolis Center
Tue 03:14:48 PM 40.1986 -96.3303 89° East 459 528 37,000  Level Minneapolis Center
Tue 03:15:49 PM 40.2008 -96.1319 89° East 458 527 37,000  Level Minneapolis Center
Tue 03:16:51 PM 40.1997 -95.9639 90° East 462 532 37,000  Level Minneapolis Center
Tue 03:17:53 PM 40.1986 -95.7942 90° East 467 537 37,000  Level Minneapolis Center
Tue 03:18:54 PM 40.1975 -95.6611 91° East 464 534 37,000  Level Minneapolis Center
Tue 03:19:56 PM 40.1961 -95.4603 90° East 461 531 37,000  Level Minneapolis Center
Tue 03:20:58 PM 40.1947 -95.2925 91° East 463 533 37,000  Level Minneapolis Center
Tue 03:22:00 PM 40.1931 -95.1261 91° East 461 531 37,000  Level Minneapolis Center
Tue 03:23:02 PM 40.1897 -94.9258 91° East 461 531 37,000  Level Minneapolis Center
Tue 03:24:03 PM 40.1881 -94.7583 91° East 462 532 37,000  Level Minneapolis Center
Tue 03:25:05 PM 40.1853 -94.5919 91° East 460 529 37,000  Level Minneapolis Center
Tue 03:26:07 PM 40.1833 -94.4150 91° East 460 529 37,000  Level Minneapolis Center
Tue 03:27:02 PM 40.1786 -94.2656 92° East 461 531 37,000  Level Kansas City Center
Tue 03:28:04 PM 40.1758 -94.1064 91° East 458 527 37,000  Level Kansas City Center
Tue 03:29:06 PM 40.1697 -93.9183 92° East 459 528 37,000  Level Kansas City Center
Tue 03:30:08 PM 40.1664 -93.7539 91° East 456 525 37,000  Level Kansas City Center
Tue 03:31:10 PM 40.1628 -93.5914 92° East 454 522 37,000  Level Kansas City Center
Tue 03:32:12 PM 40.1581 -93.4281 92° East 454 522 37,000  Level Kansas City Center
Tue 03:33:13 PM 40.1542 -93.2656 92° East 452 520 37,000  Level Kansas City Center
Tue 03:34:15 PM 40.1497 -93.0725 92° East 448 516 37,000  Level Kansas City Center
Tue 03:35:17 PM 40.1447 -92.9239 92° East 448 516 37,000  Level Kansas City Center
Tue 03:36:19 PM 40.1392 -92.7417 92° East 447 514 37,000  Level Kansas City Center
Tue 03:37:21 PM 40.1331 -92.5858 93° East 449 517 37,000  Level Kansas City Center
Tue 03:38:23 PM 40.1175 -92.4069 96° East 445 512 37,000  Level Kansas City Center
Tue 03:39:25 PM 40.1042 -92.2497 96° East 445 512 37,000  Level Kansas City Center
Tue 03:40:26 PM 40.0892 -92.0925 97° East 443 510 37,000  Level Kansas City Center
Tue 03:41:28 PM 40.0753 -91.9333 96° East 445 512 37,000  Level Kansas City Center
Tue 03:42:30 PM 40.0828 -91.7419 87° East 446 513 37,000  Level Kansas City Center
Tue 03:43:32 PM 40.0894 -91.5831 87° East 444 511 37,000  Level Kansas City Center
Tue 03:44:34 PM 40.0956 -91.4222 87° East 446 513 37,000  Level Kansas City Center
Tue 03:45:36 PM 40.1006 -91.2606 88° East 449 517 37,000  Level Kansas City Center
Tue 03:46:38 PM 40.1072 -91.0994 87° East 449 517 37,000  Level Kansas City Center
Tue 03:47:40 PM 40.1125 -90.9233 88° East 445 512 37,000  Level Kansas City Center
Tue 03:48:42 PM 40.1183 -90.7617 87° East 446 513 37,000  Level Kansas City Center
Tue 03:49:44 PM 40.1239 -90.6028 87° East 442 509 37,000  Level Kansas City Center
Tue 03:50:46 PM 40.1308 -90.4125 87° East 439 505 37,000  Level Kansas City Center
Tue 03:51:48 PM 40.1356 -90.2539 88° East 439 505 37,000  Level Kansas City Center
Tue 03:52:50 PM 40.1386 -90.0944 89° East 441 507 37,000  Level Kansas City Center
Tue 03:53:52 PM 40.1425 -89.9347 88° East 442 509 37,000  Level Kansas City Center
Tue 03:54:54 PM 40.1472 -89.7761 88° East 442 509 37,000 97 Level Kansas City Center
Tue 03:55:56 PM 40.1508 -89.5858 89° East 440 506 37,200 581 Climbing Kansas City Center
Tue 03:56:58 PM 40.1542 -89.4264 88° East 441 507 38,200 768 Climbing Kansas City Center
Tue 03:58:01 PM 40.1578 -89.2669 88° East 441 507 38,800 384 Climbing Kansas City Center
Tue 03:59:03 PM 40.1608 -89.1056 89° East 444 511 39,000 96 Climbing Kansas City Center
Tue 04:00:06 PM 40.1628 -88.9425 89° East 448 516 39,000  Level Kansas City Center
Tue 04:01:08 PM 40.1669 -88.7478 88° East 449 517 39,000  Level Kansas City Center
Tue 04:02:11 PM 40.1700 -88.5853 89° East 448 516 39,000  Level Kansas City Center
Tue 04:03:13 PM 40.1747 -88.4231 88° East 449 517 39,000  Level Kansas City Center
Tue 04:04:15 PM 40.1756 -88.2628 90° East 444 511 39,000  Level Kansas City Center
Tue 04:05:27 PM 40.1761 -88.0556 90° East 441 507 39,000  Level Chicago Center
Tue 04:06:29 PM 40.1786 -87.8969 89° East 438 504 39,000  Level Chicago Center
Tue 04:07:31 PM 40.1794 -87.7347 90° East 446 513 39,000  Level Chicago Center
Tue 04:08:33 PM 40.1794 -87.5758 90° East 440 506 39,000  Level Chicago Center
Tue 04:09:35 PM 40.1819 -87.4144 89° East 444 511 39,000  Level Chicago Center
Tue 04:10:38 PM 40.1817 -87.2544 90° East 441 507 39,000  Level Chicago Center
Tue 04:11:40 PM 40.1825 -87.0628 90° East 440 506 39,000  Level Chicago Center
Tue 04:12:42 PM 40.1822 -86.9039 90° East 438 504 39,000  Level Chicago Center
Tue 04:13:44 PM 40.1819 -86.7439 90° East 439 505 39,000  Level Chicago Center
Tue 04:14:46 PM 40.1811 -86.5869 90° East 436 502 39,000  Level Chicago Center
Tue 04:15:48 PM 40.1797 -86.4294 91° East 433 498 39,000  Level Chicago Center
Tue 04:16:50 PM 40.1800 -86.2725 90° East 431 496 39,000  Level Chicago Center
Tue 04:17:52 PM 40.1792 -86.1147 90° East 430 495 39,000  Level Chicago Center
Tue 04:18:54 PM 40.1772 -85.9250 91° East 433 498 39,000  Level Chicago Center
Tue 04:19:56 PM 40.1756 -85.7675 91° East 433 498 39,000  Level Chicago Center
Tue 04:20:58 PM 40.1736 -85.6108 91° East 432 497 39,000  Level Chicago Center
Tue 04:22:01 PM 40.1700 -85.4539 92° East 431 496 39,000  Level Chicago Center
Tue 04:23:03 PM 40.1692 -85.2969 90° East 432 497 39,000  Level Chicago Center
Tue 04:24:10 PM 40.1658 -85.1069 91° East 434 499 39,000  Level Indianapolis Center
Tue 04:25:12 PM 40.1619 -84.9478 92° East 438 504 39,000  Level Indianapolis Center
Tue 04:26:14 PM 40.1603 -84.7906 91° East 435 501 39,000  Level Indianapolis Center
Tue 04:27:16 PM 40.1561 -84.6031 92° East 438 504 39,000  Level Indianapolis Center
Tue 04:28:18 PM 40.1531 -84.4431 91° East 437 503 39,000  Level Indianapolis Center
Tue 04:29:21 PM 40.1486 -84.2850 92° East 432 497 39,000  Level Indianapolis Center
Tue 04:30:23 PM 40.1450 -84.1286 92° East 427 491 39,000  Level Indianapolis Center
Tue 04:31:25 PM 40.1406 -83.9714 92° East 428 493 39,000  Level Indianapolis Center
Tue 04:32:27 PM 40.1372 -83.8153 92° East 424 488 39,000  Level Indianapolis Center
Tue 04:33:29 PM 40.1322 -83.6589 92° East 424 488 39,000  Level Indianapolis Center
Tue 04:34:31 PM 40.1286 -83.5017 92° East 426 490 39,000  Level Indianapolis Center
Tue 04:35:33 PM 40.1236 -83.3431 92° East 428 493 39,000  Level Indianapolis Center
Tue 04:36:35 PM 40.1175 -83.1575 92° East 431 496 39,000  Level Indianapolis Center
Tue 04:37:37 PM 40.1125 -82.9989 92° East 432 497 39,000  Level Indianapolis Center
Tue 04:38:39 PM 40.1061 -82.8419 93° East 429 494 39,000  Level Indianapolis Center
Tue 04:39:41 PM 40.1011 -82.6844 92° East 429 494 39,000  Level Indianapolis Center
Tue 04:40:43 PM 40.0947 -82.5261 93° East 430 495 39,000  Level Indianapolis Center
Tue 04:41:45 PM 40.0886 -82.3694 93° East 428 493 39,000  Level Indianapolis Center
Tue 04:42:47 PM 40.0828 -82.2131 93° East 429 494 39,000  Level Indianapolis Center
Tue 04:43:49 PM 40.0758 -82.0556 93° East 429 494 39,000  Level Indianapolis Center
Tue 04:44:51 PM 40.0678 -81.8728 93° East 430 495 39,000  Level Indianapolis Center
Tue 04:45:53 PM 40.0603 -81.7153 94° East 429 494 39,000  Level Indianapolis Center
Tue 04:46:55 PM 40.0533 -81.5586 93° East 428 493 39,000  Level Indianapolis Center
Tue 04:47:57 PM 40.0469 -81.4014 93° East 430 495 39,000  Level Indianapolis Center
Tue 04:48:59 PM 40.0378 -81.2478 94° East 426 490 39,000  Level Indianapolis Center
Tue 04:50:01 PM 40.0314 -81.0958 93° East 421 484 39,000  Level Indianapolis Center
Tue 04:50:33 PM 40.0289 -81.0142 92° East 424 488 39,000  Level Cleveland Center
Tue 04:51:33 PM 40.0208 -80.8678 94° East 424 488 39,000  Level Cleveland Center
Tue 04:52:33 PM 40.0108 -80.7186 95° East 419 482 39,000  Level Cleveland Center
Tue 04:53:33 PM 40.0047 -80.5694 93° East 414 476 39,000 -50 Level Cleveland Center
Tue 04:54:33 PM 39.9794 -80.4258 103° East 414 476 38,900 -550 Descending Cleveland Center
Tue 04:55:33 PM 39.9125 -80.3042 126° Southeast 395 455 37,900 -961 Descending Cleveland Center
Tue 04:57:34 PM 39.7889 -80.0717 125° Southeast 390 449 36,000 -972 Descending Washington Center
Tue 04:58:32 PM 39.7303 -79.9600 124° Southeast 385 443 35,000 -1,322 Descending Washington Center
Tue 04:59:32 PM 39.6700 -79.8458 124° Southeast 385 443 33,400 -2,033 Descending Washington Center
Tue 05:00:33 PM 39.6072 -79.7317 125° Southeast 385 443 30,900 -2,380 Descending Washington Center
Tue 05:01:33 PM 39.5503 -79.6233 124° Southeast 385 443 28,600 -1,934 Descending Washington Center
Tue 05:02:34 PM 39.4978 -79.5100 121° Southeast 380 437 27,000 -793 Descending Washington Center
Tue 05:03:34 PM 39.4750 -79.3797 103° East 360 414 27,000 -350 Level Washington Center
Tue 05:04:34 PM 39.4461 -79.2331 104° East 370 426 26,300 -763 Descending Washington Center
Tue 05:05:32 PM 39.4261 -79.1328 104° East 370 426 25,500 -1,678 Descending Washington Center
Tue 05:06:32 PM 39.4014 -78.9839 102° East 359 413 23,000 -2,231 Descending Washington Center
Tue 05:07:33 PM 39.3797 -78.8647 103° East 354 407 21,000 -1,918 Descending Washington Center
Tue 05:08:34 PM 39.3575 -78.7536 104° East 335 386 19,100 -1,785 Descending Washington Center
Tue 05:09:34 PM 39.3394 -78.6456 102° East 330 380 17,400 -1,850 Descending Washington Center
Tue 05:10:34 PM 39.3192 -78.5372 104° East 315 362 15,400 -2,034 Descending Washington Center
Tue 05:11:32 PM 39.2989 -78.4264 103° East 315 362 13,400 -1,966 Descending Washington Center
Tue 05:12:33 PM 39.2658 -78.3286 114° Southeast 309 356 11,500 -1,438 Descending Washington Center
Tue 05:13:33 PM 39.2325 -78.2364 115° Southeast 296 341 10,500 -1,261 Descending Washington Center
Tue 05:14:32 PM 39.2325 -78.1397 90° East 272 313 9,000 -1,361 Descending Washington Center
Tue 05:15:32 PM 39.2303 -78.0433 92° East 267 307 7,800 -1,230 Descending Washington Center
Tue 05:16:34 PM 39.2300 -77.9522 90° East 267 307 6,500 -1,377 Descending Washington Center
Tue 05:17:34 PM 39.2317 -77.8639 89° East 256 295 5,000 -763 Descending Washington Center
Tue 05:18:32 PM 39.2292 -77.7753 92° East 251 289 5,000 -298 Level Washington Center
Tue 05:20:15 PM 39.2167 -77.6333 96° East 245 282 4,200 -736 Descending Potomac TRACON
Tue 05:21:15 PM 39.2000 -77.5500 104° East 239 275 3,000 -800 Descending Potomac TRACON
Tue 05:22:15 PM 39.1667 -77.4833 123° Southeast 202 232 2,600 -500 Descending Potomac TRACON
Tue 05:23:15 PM 39.1167 -77.4667 165° South 210 242 2,000 -300 Descending Potomac TRACON
Tue 05:24:15 PM 39.0667 -77.4667 180° South 181 208 2,000 -400 Level Potomac TRACON
Tue 05:25:15 PM 39.0167 -77.4667 180° South 149 171 1,200 -800 Descending Potomac TRACON
Tue 05:27:00 PM 38.9474 -77.4599 165° South  Level Estimated
Tue 05:34:00 PM 38.9474 -77.4599 165° South  Level Estimated
Tue 05:35:00 PM 38.9474 -77.4599 165° South  Level Estimated
Tue 05:36:00 PM 38.9474 -77.4599 165° South  Level Estimated

Login

Don't have an account? Register now (free) for customized features, flight alerts, and more!